Kirkwood, CA

3:06 PM PDT on August 20, 2014 (GMT -0700)
Placerville | Change Station
CLOSE
Current Station
Airport
Location: Placerville,
Elevation: 2582 ft
Nearby Weather Stations

Elev 2582 ft 38.72 °N, 120.75 °W | Updated 31 minutes ago

Clear
Clear
77 °F
Feels Like 77 °F
N
8
Wind Variable Wind from SW

Today
High -- | Low -- °F
--% Chance of Precip.
Yesterday
High -- | Low -- °F
Precip. -- in
6:18 AM 7:47 PM
Waning Crescent, 19% visible
Pressure 29.98 in
Visibility 10.0 miles
Clouds Clear
Dew Point 46 °F
Humidity 34%
Rainfall 0.00 in
Snow Depth 0 in , 0 in
UV 9 out of 12
Pollen 6.20 out of 12
Ozone Good
Flu Activity Not available.
METAR KPVF 202135Z AUTO 23007KT 10SM CLR 25/08 A2998 RMK AO1

More Conditions Fewer Conditions

Pressure 29.98 in
Visibility 10.0 miles
Clouds Clear
Dew Point 46 °F
Humidity 34%
Rainfall 0.00 in
Snow Depth 0 in , 0 in
UV 9 out of 12
Pollen 6.20 out of 12
Ozone Good
Flu Activity Not available.
METAR KPVF 202135Z AUTO 23007KT 10SM CLR 25/08 A2998 RMK AO1

More Conditions Fewer Conditions

10-Day Weather Forecast

Almanac

Astronomy

Aug. 20, 2014 Rise Set
Actual Time 6:18 AM PDT 7:47 PM PDT
Civil Twilight 5:50 AM PDT 8:15 PM PDT
Nautical Twilight 5:17 AM PDT 8:49 PM PDT
Astronomical Twilight 4:41 AM PDT 9:24 PM PDT
Moon 2:04 AM PDT 4:35 PM PDT
Length of Visible Light 14h 24m
Length of Day
13h 28m
Tomorrow will be 2m 17s shorter.
Waning Crescent, 19% of the Moon is Illuminated
Today
Waning Crescent
Aug 25
New
Sep 2
First Quarter
Sep 8
Full
Sep 15
Last Quarter

Today's Extremes

State Highs State Lows

Community

WunderPhotos

Upload Photos

1,745,773 photos uploaded!

Nearby

Air Quality

  Air Quality AQ Index Pollutant
Yesterday Moderate
OZONE
Current Good
OZONE
Wednesday Moderate
OZONE
Thursday Moderate
OZONE
Friday Moderate
OZONE
Saturday Moderate
OZONE

Snow Depth

Station Depth Elevation
Echo Peak 0 in 7800 ft
Hagan's Meadow 0 in 8000 ft
Summit Meadow 0 in 9122 ft
Leavitt Meadows 0 in 7200 ft
CSS Lab 0 in 6900 ft

Earthquake Activity

City Distance Mag. Time & Date
Mariposa, California 89 miles 2.5 4:54 AM PDT
2014-08-14
Mariposa, California 91 miles 2.7 3:31 AM PDT
2014-08-14
Minimum magnitude displayed is 2.5.

Coastal Water Temperatures

Place Temperature
No Stations Reporting

Nearby Weather Stations